Time;durP1;ratioP1;P1;durP2;ratioP2;P2;SDS_P1;SDS_P2;PMS_P1;PMS_P2;Temp;Humidity;BMP_temperature;BMP_pressure;BME280_temperature;BME280_humidity;BME280_pressure;Samples;Min_cycle;Max_cycle;Signal;HPM_P1;HPM_P2
2022/04/07 00:00:32;;;;;;;;;;;;;;;8.97;100.00;99233.53;5135436;27;19976;-67
2022/04/07 00:02:58;;;;;;;;;;;;;;;9.00;100.00;99222.75;5135262;27;19998;-67
2022/04/07 00:05:23;;;;;;;;;;;;;;;9.01;100.00;99219.16;5116743;27;19980;-68
2022/04/07 00:07:48;;;;;;;;;;;;;;;9.04;100.00;99221.59;5134995;27;19941;-67
2022/04/07 00:10:13;;;;;;;;;;;;;;;9.01;100.00;99215.69;5116648;28;19922;-68
2022/04/07 00:12:39;;;;;;;;;;;;;;;9.11;100.00;99224.72;5134948;27;19916;-67
2022/04/07 00:15:05;;;;;;;;;;;;;;;9.15;100.00;99220.97;5134992;27;19927;-68
2022/04/07 00:17:30;;;;;;;;;;;;;;;9.25;100.00;99211.47;5117095;28;19916;-68
2022/04/07 00:19:55;;;;;;;;;;;;;;;9.27;100.00;99207.78;5135071;27;19926;-68
2022/04/07 00:22:20;;;;;;;;;;;;;;;9.29;100.00;99221.81;5134816;27;19920;-66
2022/04/07 00:24:45;;;;;;;;;;;;;;;9.27;100.00;99191.91;5134934;28;19919;-67
2022/04/07 00:27:11;;;;;;;;;;;;;;;9.30;100.00;99202.31;5135302;28;19915;-67
2022/04/07 00:29:36;;;;;;;;;;;;;;;9.31;100.00;99187.25;5134968;28;19915;-67
2022/04/07 00:32:05;;;;;;;;;;;;;;;9.32;100.00;99181.88;5135040;28;19916;-67
2022/04/07 00:34:31;;;;;;;;;;;;;;;9.41;100.00;99182.22;5116487;28;20002;-67
2022/04/07 00:36:56;;;;;;;;;;;;;;;9.39;100.00;99176.16;5135222;28;19965;-67
2022/04/07 00:39:22;;;;;;;;;;;;;;;9.40;100.00;99167.25;5116452;28;20004;-67
2022/04/07 00:41:47;;;;;;;;;;;;;;;9.41;100.00;99169.81;5135227;27;19968;-68
2022/04/07 00:44:12;;;;;;;;;;;;;;;9.42;100.00;99162.72;5135175;28;20286;-68
2022/04/07 00:46:38;;;;;;;;;;;;;;;9.41;100.00;99143.31;5134774;28;19959;-67
2022/04/07 00:49:03;;;;;;;;;;;;;;;9.34;100.00;99142.84;5116257;28;19923;-68
2022/04/07 00:51:29;;;;;;;;;;;;;;;9.36;100.00;99136.63;5134488;28;19927;-67
2022/04/07 00:53:54;;;;;;;;;;;;;;;9.36;100.00;99131.31;5116439;28;19926;-68
2022/04/07 00:56:19;;;;;;;;;;;;;;;9.31;100.00;99127.16;5134656;28;20378;-67
2022/04/07 00:58:47;;;;;;;;;;;;;;;9.25;100.00;99124.91;5115974;28;19919;-68
2022/04/07 01:01:13;;;;;;;;;;;;;;;9.25;100.00;99124.06;5134828;28;19916;-68
2022/04/07 01:03:38;;;;;;;;;;;;;;;9.22;100.00;99121.59;5136499;27;19923;-67
2022/04/07 01:06:03;;;;;;;;;;;;;;;9.23;100.00;99113.56;5138334;27;19916;-67
2022/04/07 01:08:28;;;;;;;;;;;;;;;9.16;100.00;99100.81;5120210;27;19934;-68
2022/04/07 01:10:54;;;;;;;;;;;;;;;9.03;100.00;99100.75;5138579;27;19922;-68
2022/04/07 01:13:19;;;;;;;;;;;;;;;8.95;100.00;99100.38;5138748;27;19938;-67
2022/04/07 01:15:44;;;;;;;;;;;;;;;8.90;100.00;99101.66;5138415;27;19927;-67
2022/04/07 01:18:09;;;;;;;;;;;;;;;8.92;100.00;99091.78;5138177;27;20014;-67
2022/04/07 01:20:35;;;;;;;;;;;;;;;8.97;100.00;99090.56;5138216;27;19919;-68
2022/04/07 01:23:00;;;;;;;;;;;;;;;8.88;100.00;99096.44;5138312;27;19958;-67
2022/04/07 01:25:26;;;;;;;;;;;;;;;8.90;100.00;99091.06;5119528;27;19922;-67
2022/04/07 01:27:52;;;;;;;;;;;;;;;8.94;100.00;99082.81;5137933;27;19923;-68
2022/04/07 01:30:17;;;;;;;;;;;;;;;8.91;100.00;99077.72;5120010;27;19916;-68
2022/04/07 01:32:44;;;;;;;;;;;;;;;8.94;100.00;99080.16;5119603;27;19915;-68
2022/04/07 01:35:09;;;;;;;;;;;;;;;8.97;100.00;99053.50;5119901;27;20398;-68
2022/04/07 01:37:36;;;;;;;;;;;;;;;9.00;100.00;99036.53;5137954;27;19981;-68
2022/04/07 01:40:01;;;;;;;;;;;;;;;9.06;100.00;99046.75;5119799;27;20018;-68
2022/04/07 01:42:27;;;;;;;;;;;;;;;9.09;100.00;99051.84;5137940;27;20059;-68
2022/04/07 01:44:54;;;;;;;;;;;;;;;9.04;100.00;99049.47;5137665;27;19920;-68
2022/04/07 01:47:20;;;;;;;;;;;;;;;8.99;100.00;99035.72;5137711;27;19974;-68
2022/04/07 01:49:46;;;;;;;;;;;;;;;8.94;100.00;99029.00;5137536;27;20378;-68
2022/04/07 01:52:14;;;;;;;;;;;;;;;8.81;100.00;99031.59;5138098;27;19923;-69
2022/04/07 01:54:43;;;;;;;;;;;;;;;8.72;100.00;99023.38;5137670;27;19915;-69
2022/04/07 01:57:10;;;;;;;;;;;;;;;8.71;100.00;99019.06;5138272;27;20365;-68
2022/04/07 01:59:35;;;;;;;;;;;;;;;8.70;100.00;99015.53;5118934;27;19919;-68
2022/04/07 02:02:00;;;;;;;;;;;;;;;8.69;100.00;99027.09;5119182;27;19916;-68
2022/04/07 02:04:26;;;;;;;;;;;;;;;8.75;100.00;99013.47;5137769;27;20059;-68
2022/04/07 02:06:51;;;;;;;;;;;;;;;8.83;100.00;99018.25;5137627;27;19917;-68
2022/04/07 02:09:16;;;;;;;;;;;;;;;8.90;100.00;99014.28;5118932;27;19916;-67
2022/04/07 02:11:44;;;;;;;;;;;;;;;8.96;100.00;99016.53;5137557;27;20290;-68
2022/04/07 02:14:09;;;;;;;;;;;;;;;8.96;100.00;99020.03;5137758;27;19983;-69
2022/04/07 02:16:34;;;;;;;;;;;;;;;9.04;100.00;98996.53;5137616;27;19920;-67
2022/04/07 02:19:00;;;;;;;;;;;;;;;9.15;100.00;98999.31;5137883;27;19968;-68
2022/04/07 02:21:25;;;;;;;;;;;;;;;9.23;100.00;99004.97;5137412;27;19919;-68
2022/04/07 02:23:51;;;;;;;;;;;;;;;9.22;100.00;98997.13;5136963;27;20462;-68
2022/04/07 02:26:17;;;;;;;;;;;;;;;9.24;100.00;98979.31;5137416;27;19916;-68
2022/04/07 02:28:43;;;;;;;;;;;;;;;9.23;100.00;98975.00;5137404;27;19915;-67
2022/04/07 02:31:08;;;;;;;;;;;;;;;9.26;100.00;98961.53;5118229;27;20263;-68
2022/04/07 02:33:34;;;;;;;;;;;;;;;9.31;100.00;98960.25;5136912;27;20004;-68
2022/04/07 02:36:02;;;;;;;;;;;;;;;9.27;100.00;98940.25;5118416;27;19916;-68
2022/04/07 02:38:27;;;;;;;;;;;;;;;9.24;100.00;98927.22;5137158;27;20010;-68
2022/04/07 02:40:53;;;;;;;;;;;;;;;9.24;100.00;98929.84;5137091;27;19954;-68
2022/04/07 02:43:18;;;;;;;;;;;;;;;9.25;100.00;98936.84;5136752;27;20003;-68
2022/04/07 02:45:43;;;;;;;;;;;;;;;9.31;100.00;98917.88;5136464;27;19915;-68
2022/04/07 02:48:08;;;;;;;;;;;;;;;9.28;100.00;98912.78;5137069;27;19923;-68
2022/04/07 02:50:33;;;;;;;;;;;;;;;9.31;100.00;98898.50;5136995;27;19915;-68
2022/04/07 02:52:59;;;;;;;;;;;;;;;9.25;100.00;98891.81;5136802;27;19916;-68
2022/04/07 02:55:24;;;;;;;;;;;;;;;9.23;100.00;98895.53;5136432;27;19920;-68
2022/04/07 02:57:49;;;;;;;;;;;;;;;9.23;100.00;98890.22;5136364;27;19937;-68
2022/04/07 03:03:19;;;;;;;;;;;;;;;9.10;100.00;98882.28;5136856;27;19918;-69
2022/04/07 03:05:49;;;;;;;;;;;;;;;9.08;100.00;98857.69;5137307;27;19920;-68
2022/04/07 03:08:15;;;;;;;;;;;;;;;9.10;100.00;98892.00;5117827;27;20024;-68
2022/04/07 03:10:40;;;;;;;;;;;;;;;9.04;100.00;98880.00;5118084;27;19980;-68
2022/04/07 03:13:05;;;;;;;;;;;;;;;9.08;100.00;98868.28;5136734;27;20003;-68
2022/04/07 03:15:30;;;;;;;;;;;;;;;9.06;100.00;98850.81;5135950;27;20410;-68
2022/04/07 03:17:59;;;;;;;;;;;;;;;9.08;100.00;98864.78;5127188;27;19916;-68
2022/04/07 03:20:24;;;;;;;;;;;;;;;9.01;100.00;98855.56;5136134;27;19915;-68
2022/04/07 03:22:49;;;;;;;;;;;;;;;9.00;100.00;98845.91;5117309;27;19926;-67
2022/04/07 03:25:14;;;;;;;;;;;;;;;8.89;100.00;98835.19;5134635;27;20341;-68
2022/04/07 03:27:40;;;;;;;;;;;;;;;8.75;100.00;98820.25;5114742;28;20000;-68
2022/04/07 03:30:05;;;;;;;;;;;;;;;8.72;100.00;98836.34;5114720;28;20010;-68
2022/04/07 03:32:30;;;;;;;;;;;;;;;8.69;100.00;98814.53;5096696;28;19916;-68
2022/04/07 03:34:55;;;;;;;;;;;;;;;8.67;100.00;98811.13;5115293;28;20297;-68
2022/04/07 03:37:21;;;;;;;;;;;;;;;8.60;100.00;98808.06;5096800;28;19915;-68
2022/04/07 03:39:46;;;;;;;;;;;;;;;8.63;100.00;98815.78;5114912;28;20272;-67
2022/04/07 03:42:11;;;;;;;;;;;;;;;8.63;100.00;98805.22;5115015;28;19950;-67
2022/04/07 03:44:36;;;;;;;;;;;;;;;8.59;100.00;98814.28;5115111;28;19916;-68
2022/04/07 03:47:02;;;;;;;;;;;;;;;8.63;100.00;98794.63;5115014;28;19992;-68
2022/04/07 03:49:27;;;;;;;;;;;;;;;8.54;100.00;98776.69;5114683;28;19915;-67
2022/04/07 03:51:52;;;;;;;;;;;;;;;8.51;100.00;98757.56;5114551;28;19916;-68
2022/04/07 03:54:17;;;;;;;;;;;;;;;8.53;100.00;98756.50;5096406;28;19920;-68
2022/04/07 03:56:43;;;;;;;;;;;;;;;8.54;100.00;98741.47;5096141;28;19939;-68
2022/04/07 03:59:08;;;;;;;;;;;;;;;8.53;100.00;98743.25;5096303;28;19915;-68
2022/04/07 04:01:35;;;;;;;;;;;;;;;8.51;100.00;98702.81;5114842;28;19961;-68
2022/04/07 04:04:01;;;;;;;;;;;;;;;8.61;100.00;98706.56;5096498;28;19941;-68
2022/04/07 04:06:26;;;;;;;;;;;;;;;8.63;100.00;98709.09;5096636;28;20295;-69
2022/04/07 04:08:52;;;;;;;;;;;;;;;8.65;100.00;98697.44;5096476;28;19923;-67
2022/04/07 04:11:18;;;;;;;;;;;;;;;8.69;100.00;98687.50;5116963;28;20386;-67
2022/04/07 04:13:43;;;;;;;;;;;;;;;8.65;100.00;98692.16;5099769;28;19916;-68
2022/04/07 04:16:08;;;;;;;;;;;;;;;8.64;100.00;98664.00;5118066;28;20328;-67
2022/04/07 04:18:34;;;;;;;;;;;;;;;8.59;100.00;98663.47;5116302;28;19915;-67
2022/04/07 04:20:59;;;;;;;;;;;;;;;8.53;100.00;98661.25;5114993;28;19919;-67
2022/04/07 04:23:25;;;;;;;;;;;;;;;8.57;100.00;98640.72;5115039;28;19923;-68
2022/04/07 04:25:50;;;;;;;;;;;;;;;8.56;100.00;98631.94;5115193;28;20000;-68
2022/04/07 04:28:15;;;;;;;;;;;;;;;8.55;100.00;98642.63;5114960;28;19923;-68
2022/04/07 04:30:41;;;;;;;;;;;;;;;8.50;100.00;98629.72;5096195;28;19916;-68
2022/04/07 04:33:06;;;;;;;;;;;;;;;8.48;100.00;98615.75;5114250;28;20401;-68
2022/04/07 04:35:31;;;;;;;;;;;;;;;8.43;100.00;98617.84;5114230;28;19922;-67
2022/04/07 04:37:56;;;;;;;;;;;;;;;8.42;100.00;98621.47;5098646;28;19970;-68
2022/04/07 04:40:21;;;;;;;;;;;;;;;8.38;100.00;98622.66;5100227;28;19923;-68
2022/04/07 04:42:47;;;;;;;;;;;;;;;8.33;100.00;98622.09;5100106;28;19916;-68
2022/04/07 04:45:12;;;;;;;;;;;;;;;8.34;100.00;98602.63;5118101;28;19916;-68
2022/04/07 04:47:37;;;;;;;;;;;;;;;8.30;100.00;98603.81;5118526;28;19915;-70
2022/04/07 04:50:04;;;;;;;;;;;;;;;8.30;100.00;98595.88;5100372;28;19922;-70
2022/04/07 04:52:29;;;;;;;;;;;;;;;8.27;100.00;98572.28;5118457;28;20010;-69
2022/04/07 04:54:54;;;;;;;;;;;;;;;8.24;100.00;98613.97;5110443;27;19963;-68
2022/04/07 04:57:19;;;;;;;;;;;;;;;8.21;100.00;98583.22;5120183;27;19917;-68
2022/04/07 04:59:45;;;;;;;;;;;;;;;8.18;100.00;98570.22;5138976;27;19923;-68
2022/04/07 05:02:10;;;;;;;;;;;;;;;8.15;100.00;98554.56;5138695;27;19915;-69
2022/04/07 05:04:36;;;;;;;;;;;;;;;8.17;100.00;98552.69;5119765;27;19916;-68
2022/04/07 05:07:02;;;;;;;;;;;;;;;8.15;100.00;98565.16;5138585;27;20007;-68
2022/04/07 05:09:27;;;;;;;;;;;;;;;8.22;100.00;98541.78;5119644;27;20338;-69
2022/04/07 05:11:52;;;;;;;;;;;;;;;8.25;100.00;98573.31;5119700;27;19916;-68
2022/04/07 05:14:17;;;;;;;;;;;;;;;8.23;100.00;98562.84;5119764;27;19923;-68
2022/04/07 05:16:42;;;;;;;;;;;;;;;8.26;100.00;98569.72;5138101;27;19923;-68
2022/04/07 05:19:08;;;;;;;;;;;;;;;8.20;100.00;98578.03;5138178;27;19960;-69
2022/04/07 05:21:33;;;;;;;;;;;;;;;8.21;100.00;98580.59;5119455;27;20267;-68
2022/04/07 05:23:58;;;;;;;;;;;;;;;8.23;100.00;98577.88;5137909;27;19916;-68
2022/04/07 05:26:23;;;;;;;;;;;;;;;8.21;100.00;98579.75;5137954;27;19951;-67
2022/04/07 05:28:49;;;;;;;;;;;;;;;8.20;100.00;98589.47;5119491;27;19996;-67
2022/04/07 05:31:14;;;;;;;;;;;;;;;8.22;100.00;98597.31;5119280;27;20010;-67
2022/04/07 05:33:39;;;;;;;;;;;;;;;8.25;100.00;98615.63;5137629;27;19915;-67
2022/04/07 05:36:04;;;;;;;;;;;;;;;8.21;100.00;98633.47;5137881;27;19968;-68
2022/04/07 05:38:29;;;;;;;;;;;;;;;8.20;100.00;98665.31;5137614;27;20097;-68
2022/04/07 05:40:55;;;;;;;;;;;;;;;8.26;100.00;98683.44;5116068;28;20544;-70
2022/04/07 05:43:20;;;;;;;;;;;;;;;7.32;100.00;98710.75;5119852;27;20026;-67
2022/04/07 05:45:45;;;;;;;;;;;;;;;6.23;100.00;98700.81;5118017;28;19916;-68
2022/04/07 05:48:11;;;;;;;;;;;;;;;5.06;100.00;98702.28;5116714;28;20378;-68
2022/04/07 05:50:36;;;;;;;;;;;;;;;4.78;100.00;98699.44;5116280;28;19958;-68
2022/04/07 05:53:02;;;;;;;;;;;;;;;4.83;100.00;98686.91;5117008;28;19947;-68
2022/04/07 05:55:27;;;;;;;;;;;;;;;4.98;100.00;98695.75;5116477;28;20357;-70
2022/04/07 05:57:52;;;;;;;;;;;;;;;5.15;100.00;98698.31;5122422;27;19916;-69
2022/04/07 06:00:18;;;;;;;;;;;;;;;5.18;100.00;98706.03;5132770;27;19916;-69
2022/04/07 06:02:44;;;;;;;;;;;;;;;5.28;100.00;98715.97;5137178;27;19915;-69
2022/04/07 06:05:09;;;;;;;;;;;;;;;5.38;100.00;98719.81;5136177;27;19915;-68
2022/04/07 06:07:35;;;;;;;;;;;;;;;5.41;100.00;98739.81;5119026;27;19920;-68
2022/04/07 06:10:01;;;;;;;;;;;;;;;5.42;100.00;98752.91;5112873;27;20290;-68
2022/04/07 06:12:27;;;;;;;;;;;;;;;5.46;100.00;98751.81;5128206;27;20401;-69
2022/04/07 06:14:52;;;;;;;;;;;;;;;5.54;100.00;98751.38;5136418;27;19915;-68
2022/04/07 06:17:17;;;;;;;;;;;;;;;5.57;100.00;98757.34;5136683;27;19926;-68
2022/04/07 06:19:42;;;;;;;;;;;;;;;5.58;100.00;98753.75;5136726;27;19923;-68
2022/04/07 06:22:07;;;;;;;;;;;;;;;5.63;100.00;98756.13;5136384;27;20330;-68
2022/04/07 06:24:35;;;;;;;;;;;;;;;5.68;100.00;98733.88;5133593;27;19922;-68
2022/04/07 06:27:01;;;;;;;;;;;;;;;5.63;100.00;98729.81;5133413;27;20003;-68
2022/04/07 06:29:26;;;;;;;;;;;;;;;5.70;100.00;98724.13;5115018;27;19955;-69
2022/04/07 06:31:52;;;;;;;;;;;;;;;5.72;100.00;98740.66;5117731;27;19916;-68
2022/04/07 06:34:17;;;;;;;;;;;;;;;5.71;100.00;98741.63;5136775;27;19916;-68
2022/04/07 06:36:43;;;;;;;;;;;;;;;5.78;100.00;98748.22;5136136;27;19923;-68
2022/04/07 06:39:08;;;;;;;;;;;;;;;5.75;100.00;98745.75;5136032;27;19915;-68
2022/04/07 06:41:34;;;;;;;;;;;;;;;5.66;100.00;98735.75;5136162;27;19916;-67
2022/04/07 06:43:59;;;;;;;;;;;;;;;5.69;100.00;98735.56;5117542;27;19992;-68
2022/04/07 06:46:24;;;;;;;;;;;;;;;5.64;100.00;98734.97;5132980;27;20006;-68
2022/04/07 06:48:50;;;;;;;;;;;;;;;5.71;100.00;98730.22;5098946;27;20442;-68
2022/04/07 06:51:15;;;;;;;;;;;;;;;5.63;100.00;98720.13;5125278;27;19923;-67
2022/04/07 06:53:40;;;;;;;;;;;;;;;5.63;100.00;98720.13;5115439;28;19916;-68
2022/04/07 06:56:05;;;;;;;;;;;;;;;5.65;100.00;98704.25;5115491;28;19959;-67
2022/04/07 06:58:31;;;;;;;;;;;;;;;5.68;100.00;98685.63;5115277;28;19951;-67
2022/04/07 07:00:56;;;;;;;;;;;;;;;5.67;100.00;98681.31;5114220;28;19961;-68
2022/04/07 07:03:22;;;;;;;;;;;;;;;5.66;100.00;98674.31;5121807;27;19924;-70
2022/04/07 07:05:47;;;;;;;;;;;;;;;5.79;100.00;98668.28;5117579;27;19919;-68
2022/04/07 07:08:12;;;;;;;;;;;;;;;5.80;100.00;98659.44;5117144;27;19979;-68
2022/04/07 07:10:38;;;;;;;;;;;;;;;5.80;100.00;98648.91;5135985;27;19915;-68
2022/04/07 07:13:03;;;;;;;;;;;;;;;6.00;100.00;98645.16;5135691;27;19927;-68
2022/04/07 07:15:28;;;;;;;;;;;;;;;5.95;100.00;98657.72;5120032;27;19916;-68
2022/04/07 07:17:54;;;;;;;;;;;;;;;6.05;100.00;98633.38;5114773;28;19916;-68
2022/04/07 07:20:19;;;;;;;;;;;;;;;6.12;100.00;98621.53;5114360;27;19915;-68
2022/04/07 07:22:44;;;;;;;;;;;;;;;6.17;100.00;98606.31;5107398;28;19923;-68
2022/04/07 07:25:10;;;;;;;;;;;;;;;6.28;100.00;98581.06;5130503;27;20248;-67
2022/04/07 07:27:39;;;;;;;;;;;;;;;6.08;100.00;98554.16;5115149;27;20382;-69
2022/04/07 07:30:08;;;;;;;;;;;;;;;6.23;100.00;98536.56;5123365;27;19934;-68
2022/04/07 07:32:33;;;;;;;;;;;;;;;6.27;100.00;98545.97;5135473;27;20014;-67
2022/04/07 07:34:59;;;;;;;;;;;;;;;6.31;100.00;98544.84;5117309;27;19959;-68
2022/04/07 07:37:24;;;;;;;;;;;;;;;6.39;100.00;98547.00;5114988;28;19920;-69
2022/04/07 07:39:50;;;;;;;;;;;;;;;6.47;100.00;98545.59;5114772;28;19963;-68
2022/04/07 07:42:15;;;;;;;;;;;;;;;6.56;100.00;98531.81;5114947;28;19916;-68
2022/04/07 07:44:41;;;;;;;;;;;;;;;6.63;100.00;98506.75;5133628;27;19989;-69
2022/04/07 07:47:06;;;;;;;;;;;;;;;6.74;100.00;98506.94;5116945;27;19919;-69
2022/04/07 07:49:31;;;;;;;;;;;;;;;6.96;100.00;98507.22;5134892;27;19922;-68
2022/04/07 07:51:56;;;;;;;;;;;;;;;7.15;100.00;98502.44;5123573;27;19963;-68
2022/04/07 07:54:21;;;;;;;;;;;;;;;7.22;100.00;98492.31;5125797;27;20281;-68
2022/04/07 07:56:47;;;;;;;;;;;;;;;7.27;100.00;98479.66;5125345;27;19923;-68
2022/04/07 07:59:12;;;;;;;;;;;;;;;7.36;100.00;98464.03;5127172;27;19915;-68
2022/04/07 08:01:37;;;;;;;;;;;;;;;7.49;100.00;98469.34;5117401;27;19915;-68
2022/04/07 08:04:02;;;;;;;;;;;;;;;7.41;100.00;98461.94;5131383;27;20370;-70
2022/04/07 08:06:29;;;;;;;;;;;;;;;7.38;100.00;98442.81;5104149;27;19931;-69
2022/04/07 08:08:54;;;;;;;;;;;;;;;7.67;100.00;98453.06;5097310;28;19969;-68
2022/04/07 08:11:19;;;;;;;;;;;;;;;7.96;100.00;98432.56;5126569;27;19920;-68
2022/04/07 08:13:44;;;;;;;;;;;;;;;7.93;100.00;98443.34;5120622;28;19924;-68
2022/04/07 08:16:10;;;;;;;;;;;;;;;7.94;100.00;98441.56;5114423;28;19919;-69
2022/04/07 08:18:35;;;;;;;;;;;;;;;7.94;100.00;98418.63;5114616;27;19916;-68
2022/04/07 08:21:00;;;;;;;;;;;;;;;8.13;100.00;98431.38;5128258;27;19919;-69
2022/04/07 08:23:26;;;;;;;;;;;;;;;8.30;100.00;98412.56;5142031;27;19927;-71
2022/04/07 08:25:51;;;;;;;;;;;;;;;8.38;100.00;98405.78;5119442;28;19927;-69
2022/04/07 08:28:16;;;;;;;;;;;;;;;8.55;100.00;98408.03;5121501;28;19942;-67
2022/04/07 08:30:42;;;;;;;;;;;;;;;8.67;100.00;98407.13;5145099;28;19916;-68
2022/04/07 08:33:07;;;;;;;;;;;;;;;8.72;100.00;98402.34;5135809;28;19923;-67
2022/04/07 08:35:32;;;;;;;;;;;;;;;8.65;100.00;98394.97;5115971;28;20267;-67
2022/04/07 08:37:57;;;;;;;;;;;;;;;8.78;100.00;98403.66;5117430;28;19915;-68
2022/04/07 08:40:23;;;;;;;;;;;;;;;9.01;100.00;98389.59;5134229;28;19923;-72
2022/04/07 08:42:48;;;;;;;;;;;;;;;9.13;100.00;98389.50;5110186;28;19923;-68
2022/04/07 08:45:14;;;;;;;;;;;;;;;8.97;100.00;98383.69;5113681;28;19955;-68
2022/04/07 08:47:40;;;;;;;;;;;;;;;8.98;100.00;98377.41;5132210;28;20422;-67
2022/04/07 08:50:06;;;;;;;;;;;;;;;9.08;100.00;98378.41;5134820;28;20006;-67
2022/04/07 08:52:32;;;;;;;;;;;;;;;9.11;100.00;98382.63;5134815;28;20002;-68
2022/04/07 08:54:57;;;;;;;;;;;;;;;9.19;100.00;98389.03;5116048;28;20357;-70
2022/04/07 08:57:23;;;;;;;;;;;;;;;9.37;100.00;98362.09;5133080;28;19919;-69
2022/04/07 08:59:49;;;;;;;;;;;;;;;9.36;100.00;98366.53;5134316;28;19919;-69
2022/04/07 09:02:14;;;;;;;;;;;;;;;9.65;100.00;98378.41;5132994;28;20007;-67
2022/04/07 09:04:40;;;;;;;;;;;;;;;9.92;100.00;98351.53;5130836;28;20366;-68
2022/04/07 09:07:06;;;;;;;;;;;;;;;9.91;100.00;98369.25;5134585;28;19922;-67
2022/04/07 09:09:32;;;;;;;;;;;;;;;9.62;100.00;98364.53;5116254;28;19919;-67
2022/04/07 09:11:57;;;;;;;;;;;;;;;9.80;100.00;98349.88;5134052;28;19922;-68
2022/04/07 09:14:23;;;;;;;;;;;;;;;9.95;100.00;98364.53;5133830;28;19920;-68
2022/04/07 09:16:52;;;;;;;;;;;;;;;10.60;100.00;98331.75;5132748;28;20371;-68
2022/04/07 09:19:20;;;;;;;;;;;;;;;10.67;100.00;98340.06;5132450;28;19974;-70
2022/04/07 09:21:45;;;;;;;;;;;;;;;10.57;100.00;98332.00;5114690;28;19927;-69
2022/04/07 09:24:11;;;;;;;;;;;;;;;11.03;100.00;98312.25;5123856;27;19919;-74
2022/04/07 09:26:39;;;;;;;;;;;;;;;11.38;100.00;98326.03;5115528;27;19919;-68
2022/04/07 09:29:10;;;;;;;;;;;;;;;10.84;100.00;98358.13;5135919;27;20370;-68
2022/04/07 09:31:37;;;;;;;;;;;;;;;10.45;100.00;98354.25;5133468;27;19919;-68
2022/04/07 09:34:03;;;;;;;;;;;;;;;10.64;100.00;98327.03;5137401;27;20367;-68
2022/04/07 09:36:28;;;;;;;;;;;;;;;10.51;100.00;98339.66;5117812;27;19984;-67
2022/04/07 09:38:55;;;;;;;;;;;;;;;10.18;100.00;98335.25;5122305;27;20469;-68
2022/04/07 09:41:21;;;;;;;;;;;;;;;9.95;100.00;98351.28;5137117;27;19916;-68
2022/04/07 09:43:47;;;;;;;;;;;;;;;9.96;100.00;98337.09;5119060;27;20320;-69
2022/04/07 09:46:17;;;;;;;;;;;;;;;10.00;100.00;98359.72;5115445;27;19919;-68
2022/04/07 09:48:59;;;;;;;;;;;;;;;9.75;100.00;98346.72;5119043;27;19919;-68
2022/04/07 09:51:24;;;;;;;;;;;;;;;9.84;100.00;98351.28;5137247;27;20433;-67
2022/04/07 09:53:51;;;;;;;;;;;;;;;9.69;100.00;98352.50;5137374;27;19915;-68
2022/04/07 09:56:16;;;;;;;;;;;;;;;9.61;100.00;98381.41;5118705;27;19923;-67
2022/04/07 09:58:42;;;;;;;;;;;;;;;9.56;100.00;98379.13;5117987;27;19916;-68
2022/04/07 10:01:09;;;;;;;;;;;;;;;9.31;100.00;98369.56;5130945;27;20061;-67
2022/04/07 10:03:35;;;;;;;;;;;;;;;9.55;100.00;98392.50;5119187;27;20282;-68
2022/04/07 10:06:00;;;;;;;;;;;;;;;9.50;100.00;98389.34;5118108;27;19916;-67
2022/04/07 10:08:28;;;;;;;;;;;;;;;9.29;100.00;98384.75;5105933;28;19923;-68
2022/04/07 10:10:54;;;;;;;;;;;;;;;9.48;100.00;98383.31;5098106;28;19964;-68
2022/04/07 10:13:20;;;;;;;;;;;;;;;9.71;100.00;98393.81;5097978;28;19916;-67
2022/04/07 10:15:45;;;;;;;;;;;;;;;9.75;100.00;98394.44;5108582;27;19953;-67
2022/04/07 10:18:16;;;;;;;;;;;;;;;9.70;100.00;98420.44;5129781;27;19965;-67
2022/04/07 10:20:45;;;;;;;;;;;;;;;9.63;100.00;98395.41;5115687;28;20363;-68
2022/04/07 10:23:13;;;;;;;;;;;;;;;9.63;100.00;98390.09;5130113;27;20259;-67
2022/04/07 10:25:43;;;;;;;;;;;;;;;9.90;100.00;98391.44;5136267;27;19916;-68
2022/04/07 10:28:09;;;;;;;;;;;;;;;9.96;100.00;98406.84;5135356;27;19919;-68
2022/04/07 10:30:46;;;;;;;;;;;;;;;9.84;100.00;98369.84;5117987;27;19920;-68
2022/04/07 10:33:30;;;;;;;;;;;;;;;9.77;100.00;98400.47;5102739;27;19926;-68
2022/04/07 10:35:55;;;;;;;;;;;;;;;9.90;100.00;98393.22;5131804;27;20018;-68
2022/04/07 10:38:35;;;;;;;;;;;;;;;10.03;100.00;98428.44;5125354;27;20151;-69
2022/04/07 10:41:01;;;;;;;;;;;;;;;9.92;100.00;98401.91;5126933;27;19927;-68
2022/04/07 10:43:26;;;;;;;;;;;;;;;10.75;100.00;98357.06;5112146;27;20441;-68
2022/04/07 10:46:01;;;;;;;;;;;;;;;10.84;100.00;98413.88;5135908;27;19963;-69
2022/04/07 10:48:27;;;;;;;;;;;;;;;10.50;100.00;98383.06;5115508;27;19919;-68
2022/04/07 10:51:00;;;;;;;;;;;;;;;11.06;100.00;98391.69;5135134;27;20003;-68
2022/04/07 10:53:26;;;;;;;;;;;;;;;12.10;100.00;98402.97;5117094;27;19927;-68
2022/04/07 10:55:55;;;;;;;;;;;;;;;11.86;100.00;98362.59;5135766;27;20025;-70
2022/04/07 10:58:21;;;;;;;;;;;;;;;12.32;100.00;98407.28;5107171;27;20444;-68
2022/04/07 11:00:47;;;;;;;;;;;;;;;12.21;100.00;98407.38;5132290;27;19920;-68
2022/04/07 11:03:13;;;;;;;;;;;;;;;12.05;100.00;98428.31;5131695;27;19968;-68
2022/04/07 11:05:51;;;;;;;;;;;;;;;12.17;100.00;98408.63;5115325;27;19919;-68
2022/04/07 11:08:20;;;;;;;;;;;;;;;12.91;100.00;98416.09;5135351;27;20009;-68
2022/04/07 11:10:48;;;;;;;;;;;;;;;13.26;100.00;98412.91;5108997;28;19931;-68
2022/04/07 11:13:14;;;;;;;;;;;;;;;12.92;100.00;98432.94;5079829;28;19920;-68
2022/04/07 11:15:42;;;;;;;;;;;;;;;13.05;100.00;98460.16;5096357;28;19929;-68
2022/04/07 11:18:21;;;;;;;;;;;;;;;13.03;100.00;98491.47;5114591;28;19915;-69
2022/04/07 11:20:59;;;;;;;;;;;;;;;13.16;100.00;98460.03;5130964;27;19928;-68
2022/04/07 11:23:37;;;;;;;;;;;;;;;12.22;100.00;98494.22;5135152;27;20096;-67
2022/04/07 11:26:10;;;;;;;;;;;;;;;11.70;100.00;98489.00;5135044;27;19915;-67
2022/04/07 11:28:37;;;;;;;;;;;;;;;11.98;100.00;98477.69;5128889;27;19930;-67
2022/04/07 11:31:04;;;;;;;;;;;;;;;12.04;100.00;98493.97;5118358;27;19924;-67
2022/04/07 11:33:29;;;;;;;;;;;;;;;12.06;100.00;98496.50;5114497;28;20260;-67
2022/04/07 11:36:01;;;;;;;;;;;;;;;11.77;100.00;98483.03;5114309;28;19996;-67
2022/04/07 11:38:26;;;;;;;;;;;;;;;11.71;100.00;98520.78;5097198;27;19916;-67
2022/04/07 11:41:00;;;;;;;;;;;;;;;11.95;100.00;98509.88;5131641;27;19968;-68
2022/04/07 11:43:26;;;;;;;;;;;;;;;12.52;100.00;98520.84;5116209;27;19972;-68
2022/04/07 11:45:52;;;;;;;;;;;;;;;12.08;100.00;98532.66;5133924;27;20332;-68
2022/04/07 11:48:17;;;;;;;;;;;;;;;12.38;100.00;98536.31;5134252;27;19920;-68
2022/04/07 11:50:42;;;;;;;;;;;;;;;13.90;100.00;98547.34;5134677;27;20299;-69
2022/04/07 11:53:08;;;;;;;;;;;;;;;13.08;100.00;98529.22;5116454;27;19922;-67
2022/04/07 11:55:33;;;;;;;;;;;;;;;12.81;100.00;98519.13;5134903;27;19916;-67
2022/04/07 11:57:59;;;;;;;;;;;;;;;14.04;100.00;98482.84;5123019;27;19919;-67
2022/04/07 12:00:28;;;;;;;;;;;;;;;15.26;100.00;98476.28;5127837;27;19968;-68
2022/04/07 12:03:00;;;;;;;;;;;;;;;14.71;100.00;98462.13;5130986;27;19938;-67
2022/04/07 12:05:25;;;;;;;;;;;;;;;15.68;100.00;98480.03;5134025;27;19919;-68
2022/04/07 12:07:51;;;;;;;;;;;;;;;16.02;100.00;98459.56;5134582;27;19922;-68
2022/04/07 12:10:16;;;;;;;;;;;;;;;15.99;100.00;98448.34;5115863;27;19919;-68
2022/04/07 12:12:42;;;;;;;;;;;;;;;14.68;100.00;98429.53;5128678;27;20339;-68
2022/04/07 12:15:11;;;;;;;;;;;;;;;14.60;100.00;98473.00;5134112;27;20435;-67
2022/04/07 12:17:56;;;;;;;;;;;;;;;15.19;100.00;98468.00;5122030;27;19987;-67
2022/04/07 12:20:22;;;;;;;;;;;;;;;15.03;100.00;98450.97;5113974;28;19977;-68
2022/04/07 12:22:47;;;;;;;;;;;;;;;13.55;100.00;98467.91;5112838;28;19923;-67
2022/04/07 12:25:12;;;;;;;;;;;;;;;13.06;100.00;98475.19;5129753;27;19963;-67
2022/04/07 12:27:37;;;;;;;;;;;;;;;12.27;100.00;98462.72;5115564;28;19920;-69
2022/04/07 12:30:04;;;;;;;;;;;;;;;12.41;100.00;98481.00;5134431;28;19916;-69
2022/04/07 12:32:42;;;;;;;;;;;;;;;12.43;100.00;98470.22;5132760;28;20010;-69
2022/04/07 12:35:08;;;;;;;;;;;;;;;11.51;100.00;98471.06;5134516;28;19930;-67
2022/04/07 12:37:37;;;;;;;;;;;;;;;11.76;100.00;98483.16;5115821;28;19916;-67
2022/04/07 12:40:03;;;;;;;;;;;;;;;11.91;100.00;98474.72;5134512;28;19916;-67
2022/04/07 12:42:28;;;;;;;;;;;;;;;11.88;100.00;98487.44;5134225;28;19955;-69